sensor_id;sensor_type;location;lat;lon;timestamp;P1;durP1;ratioP1;P2;durP2;ratioP2
72406;SDS011;60396;47.550;18.828;2022-09-30T00:01:41;4.22;;;0.80;;
72406;SDS011;60396;47.550;18.828;2022-09-30T00:04:13;2.37;;;0.43;;
72406;SDS011;60396;47.550;18.828;2022-09-30T00:06:43;3.15;;;0.68;;
72406;SDS011;60396;47.550;18.828;2022-09-30T00:09:11;4.28;;;0.70;;
72406;SDS011;60396;47.550;18.828;2022-09-30T00:11:39;2.97;;;0.70;;
72406;SDS011;60396;47.550;18.828;2022-09-30T00:16:43;5.63;;;1.00;;
72406;SDS011;60396;47.550;18.828;2022-09-30T00:19:12;3.80;;;0.90;;
72406;SDS011;60396;47.550;18.828;2022-09-30T00:21:40;2.47;;;0.50;;
72406;SDS011;60396;47.550;18.828;2022-09-30T00:24:08;5.65;;;0.80;;
72406;SDS011;60396;47.550;18.828;2022-09-30T00:26:36;2.85;;;0.50;;
72406;SDS011;60396;47.550;18.828;2022-09-30T00:29:04;2.10;;;0.50;;
72406;SDS011;60396;47.550;18.828;2022-09-30T00:31:33;2.10;;;0.52;;
72406;SDS011;60396;47.550;18.828;2022-09-30T00:34:02;1.73;;;0.40;;
72406;SDS011;60396;47.550;18.828;2022-09-30T00:36:43;4.12;;;0.50;;
72406;SDS011;60396;47.550;18.828;2022-09-30T00:39:21;3.65;;;0.50;;
72406;SDS011;60396;47.550;18.828;2022-09-30T00:41:56;2.40;;;0.50;;
72406;SDS011;60396;47.550;18.828;2022-09-30T00:49:47;1.98;;;0.30;;
72406;SDS011;60396;47.550;18.828;2022-09-30T00:52:15;2.28;;;0.40;;
72406;SDS011;60396;47.550;18.828;2022-09-30T00:54:42;1.50;;;0.33;;
72406;SDS011;60396;47.550;18.828;2022-09-30T00:57:10;1.50;;;0.30;;
72406;SDS011;60396;47.550;18.828;2022-09-30T00:59:40;1.62;;;0.30;;
72406;SDS011;60396;47.550;18.828;2022-09-30T01:02:10;2.37;;;0.30;;
72406;SDS011;60396;47.550;18.828;2022-09-30T01:04:39;2.20;;;0.40;;
72406;SDS011;60396;47.550;18.828;2022-09-30T01:07:08;2.47;;;0.40;;
72406;SDS011;60396;47.550;18.828;2022-09-30T01:09:36;1.60;;;0.28;;
72406;SDS011;60396;47.550;18.828;2022-09-30T01:12:13;7.87;;;0.40;;
72406;SDS011;60396;47.550;18.828;2022-09-30T01:14:43;2.35;;;0.40;;
72406;SDS011;60396;47.550;18.828;2022-09-30T01:26:27;2.72;;;0.30;;
72406;SDS011;60396;47.550;18.828;2022-09-30T01:37:29;0.82;;;0.20;;
72406;SDS011;60396;47.550;18.828;2022-09-30T01:40:18;1.95;;;0.20;;
72406;SDS011;60396;47.550;18.828;2022-09-30T01:45:32;1.05;;;0.20;;
72406;SDS011;60396;47.550;18.828;2022-09-30T01:48:07;1.30;;;0.30;;
72406;SDS011;60396;47.550;18.828;2022-09-30T01:50:52;1.12;;;0.30;;
72406;SDS011;60396;47.550;18.828;2022-09-30T01:53:43;0.95;;;0.22;;
72406;SDS011;60396;47.550;18.828;2022-09-30T02:01:35;2.73;;;0.50;;
72406;SDS011;60396;47.550;18.828;2022-09-30T02:04:11;1.85;;;0.30;;
72406;SDS011;60396;47.550;18.828;2022-09-30T02:06:44;1.25;;;0.30;;
72406;SDS011;60396;47.550;18.828;2022-09-30T02:09:19;2.17;;;0.57;;
72406;SDS011;60396;47.550;18.828;2022-09-30T02:11:50;2.25;;;0.50;;
72406;SDS011;60396;47.550;18.828;2022-09-30T02:16:58;1.50;;;0.40;;
72406;SDS011;60396;47.550;18.828;2022-09-30T02:21:59;3.25;;;0.50;;
72406;SDS011;60396;47.550;18.828;2022-09-30T02:24:31;2.53;;;0.40;;
72406;SDS011;60396;47.550;18.828;2022-09-30T02:27:08;3.93;;;0.50;;
72406;SDS011;60396;47.550;18.828;2022-09-30T02:29:44;2.15;;;0.57;;
72406;SDS011;60396;47.550;18.828;2022-09-30T02:32:20;3.50;;;0.68;;
72406;SDS011;60396;47.550;18.828;2022-09-30T02:34:53;1.90;;;0.40;;
72406;SDS011;60396;47.550;18.828;2022-09-30T02:37:27;3.12;;;0.60;;
72406;SDS011;60396;47.550;18.828;2022-09-30T02:40:10;2.57;;;0.50;;
72406;SDS011;60396;47.550;18.828;2022-09-30T02:43:04;4.55;;;1.02;;
72406;SDS011;60396;47.550;18.828;2022-09-30T03:06:54;4.03;;;0.68;;
72406;SDS011;60396;47.550;18.828;2022-09-30T03:09:23;2.10;;;0.50;;
72406;SDS011;60396;47.550;18.828;2022-09-30T03:11:56;2.85;;;0.73;;
72406;SDS011;60396;47.550;18.828;2022-09-30T03:15:16;3.28;;;0.88;;
72406;SDS011;60396;47.550;18.828;2022-09-30T03:17:25;3.33;;;0.98;;
72406;SDS011;60396;47.550;18.828;2022-09-30T03:20:29;4.90;;;0.88;;
72406;SDS011;60396;47.550;18.828;2022-09-30T03:26:07;4.30;;;0.75;;
72406;SDS011;60396;47.550;18.828;2022-09-30T03:28:43;2.60;;;0.80;;
72406;SDS011;60396;47.550;18.828;2022-09-30T03:34:03;3.90;;;0.62;;
72406;SDS011;60396;47.550;18.828;2022-09-30T03:36:56;2.67;;;0.50;;
72406;SDS011;60396;47.550;18.828;2022-09-30T03:42:14;2.90;;;0.52;;
72406;SDS011;60396;47.550;18.828;2022-09-30T03:44:55;2.45;;;0.45;;
72406;SDS011;60396;47.550;18.828;2022-09-30T03:47:29;4.35;;;1.15;;
72406;SDS011;60396;47.550;18.828;2022-09-30T03:52:57;4.90;;;0.75;;
72406;SDS011;60396;47.550;18.828;2022-09-30T03:55:25;3.37;;;0.93;;
72406;SDS011;60396;47.550;18.828;2022-09-30T03:57:53;2.08;;;0.50;;
72406;SDS011;60396;47.550;18.828;2022-09-30T04:00:22;3.35;;;0.90;;
72406;SDS011;60396;47.550;18.828;2022-09-30T04:02:49;3.53;;;1.13;;
72406;SDS011;60396;47.550;18.828;2022-09-30T04:05:23;3.37;;;1.10;;
72406;SDS011;60396;47.550;18.828;2022-09-30T04:07:51;4.28;;;1.27;;
72406;SDS011;60396;47.550;18.828;2022-09-30T04:10:19;3.28;;;1.17;;
72406;SDS011;60396;47.550;18.828;2022-09-30T04:12:46;4.25;;;1.55;;
72406;SDS011;60396;47.550;18.828;2022-09-30T04:15:14;5.37;;;1.57;;
72406;SDS011;60396;47.550;18.828;2022-09-30T04:20:16;5.30;;;1.48;;
72406;SDS011;60396;47.550;18.828;2022-09-30T04:22:43;4.97;;;1.60;;
72406;SDS011;60396;47.550;18.828;2022-09-30T04:28:17;4.17;;;1.40;;
72406;SDS011;60396;47.550;18.828;2022-09-30T04:30:45;5.55;;;1.73;;
72406;SDS011;60396;47.550;18.828;2022-09-30T04:33:14;4.37;;;1.70;;
72406;SDS011;60396;47.550;18.828;2022-09-30T04:35:42;4.55;;;1.58;;
72406;SDS011;60396;47.550;18.828;2022-09-30T04:38:09;3.47;;;1.12;;
72406;SDS011;60396;47.550;18.828;2022-09-30T04:40:37;3.87;;;1.30;;
72406;SDS011;60396;47.550;18.828;2022-09-30T04:43:05;4.87;;;1.90;;
72406;SDS011;60396;47.550;18.828;2022-09-30T04:45:32;4.90;;;1.50;;
72406;SDS011;60396;47.550;18.828;2022-09-30T04:48:00;3.80;;;1.35;;
72406;SDS011;60396;47.550;18.828;2022-09-30T04:50:28;4.57;;;1.70;;
72406;SDS011;60396;47.550;18.828;2022-09-30T04:52:55;5.17;;;1.50;;
72406;SDS011;60396;47.550;18.828;2022-09-30T04:55:23;4.87;;;1.30;;
72406;SDS011;60396;47.550;18.828;2022-09-30T04:57:51;3.87;;;1.15;;
72406;SDS011;60396;47.550;18.828;2022-09-30T05:00:18;3.92;;;1.50;;
72406;SDS011;60396;47.550;18.828;2022-09-30T05:02:46;4.70;;;1.90;;
72406;SDS011;60396;47.550;18.828;2022-09-30T05:05:14;5.73;;;1.80;;
72406;SDS011;60396;47.550;18.828;2022-09-30T05:07:42;6.43;;;1.55;;
72406;SDS011;60396;47.550;18.828;2022-09-30T05:10:10;5.60;;;1.67;;
72406;SDS011;60396;47.550;18.828;2022-09-30T05:12:38;4.85;;;1.58;;
72406;SDS011;60396;47.550;18.828;2022-09-30T05:15:07;3.65;;;1.30;;
72406;SDS011;60396;47.550;18.828;2022-09-30T05:17:35;6.87;;;1.50;;
72406;SDS011;60396;47.550;18.828;2022-09-30T05:20:03;3.97;;;1.30;;
72406;SDS011;60396;47.550;18.828;2022-09-30T05:22:32;3.80;;;1.27;;
72406;SDS011;60396;47.550;18.828;2022-09-30T05:25:00;5.07;;;1.60;;
72406;SDS011;60396;47.550;18.828;2022-09-30T05:27:29;4.93;;;1.65;;
72406;SDS011;60396;47.550;18.828;2022-09-30T05:29:57;8.10;;;1.90;;
72406;SDS011;60396;47.550;18.828;2022-09-30T05:32:25;4.70;;;1.60;;
72406;SDS011;60396;47.550;18.828;2022-09-30T05:34:52;7.32;;;2.10;;
72406;SDS011;60396;47.550;18.828;2022-09-30T05:37:23;6.50;;;2.33;;
72406;SDS011;60396;47.550;18.828;2022-09-30T05:39:51;5.68;;;2.17;;
72406;SDS011;60396;47.550;18.828;2022-09-30T05:42:18;4.83;;;1.63;;
72406;SDS011;60396;47.550;18.828;2022-09-30T05:44:46;5.82;;;1.90;;
72406;SDS011;60396;47.550;18.828;2022-09-30T05:47:14;4.22;;;1.60;;
72406;SDS011;60396;47.550;18.828;2022-09-30T05:49:41;5.43;;;1.70;;
72406;SDS011;60396;47.550;18.828;2022-09-30T05:52:09;5.60;;;1.40;;
72406;SDS011;60396;47.550;18.828;2022-09-30T05:54:37;6.27;;;1.73;;
72406;SDS011;60396;47.550;18.828;2022-09-30T05:57:06;6.22;;;2.28;;
72406;SDS011;60396;47.550;18.828;2022-09-30T05:59:34;5.75;;;2.15;;
72406;SDS011;60396;47.550;18.828;2022-09-30T06:02:03;4.78;;;1.90;;
72406;SDS011;60396;47.550;18.828;2022-09-30T06:04:32;7.87;;;2.05;;
72406;SDS011;60396;47.550;18.828;2022-09-30T06:06:59;9.00;;;2.20;;
72406;SDS011;60396;47.550;18.828;2022-09-30T06:09:27;5.82;;;2.00;;
72406;SDS011;60396;47.550;18.828;2022-09-30T06:11:55;5.28;;;1.55;;
72406;SDS011;60396;47.550;18.828;2022-09-30T06:14:24;5.50;;;1.90;;
72406;SDS011;60396;47.550;18.828;2022-09-30T06:16:51;4.62;;;1.40;;
72406;SDS011;60396;47.550;18.828;2022-09-30T06:19:20;3.90;;;1.10;;
72406;SDS011;60396;47.550;18.828;2022-09-30T06:21:47;4.18;;;1.35;;
72406;SDS011;60396;47.550;18.828;2022-09-30T06:24:15;4.45;;;1.27;;
72406;SDS011;60396;47.550;18.828;2022-09-30T06:26:43;4.12;;;1.12;;
72406;SDS011;60396;47.550;18.828;2022-09-30T06:29:10;3.00;;;0.80;;
72406;SDS011;60396;47.550;18.828;2022-09-30T06:31:38;2.87;;;0.90;;
72406;SDS011;60396;47.550;18.828;2022-09-30T06:34:06;3.15;;;0.82;;
72406;SDS011;60396;47.550;18.828;2022-09-30T06:36:34;3.15;;;0.80;;
72406;SDS011;60396;47.550;18.828;2022-09-30T06:39:02;6.43;;;1.02;;
72406;SDS011;60396;47.550;18.828;2022-09-30T06:41:31;3.12;;;0.77;;
72406;SDS011;60396;47.550;18.828;2022-09-30T06:43:58;3.67;;;0.70;;
72406;SDS011;60396;47.550;18.828;2022-09-30T06:46:26;2.03;;;0.60;;
72406;SDS011;60396;47.550;18.828;2022-09-30T06:48:58;2.28;;;0.60;;
72406;SDS011;60396;47.550;18.828;2022-09-30T06:51:39;1.92;;;0.50;;
72406;SDS011;60396;47.550;18.828;2022-09-30T06:54:08;3.67;;;0.70;;
72406;SDS011;60396;47.550;18.828;2022-09-30T06:56:36;1.97;;;0.50;;
72406;SDS011;60396;47.550;18.828;2022-09-30T06:59:04;2.75;;;0.60;;
72406;SDS011;60396;47.550;18.828;2022-09-30T07:01:32;2.60;;;0.60;;
72406;SDS011;60396;47.550;18.828;2022-09-30T07:03:59;2.53;;;0.70;;
72406;SDS011;60396;47.550;18.828;2022-09-30T07:06:29;3.08;;;0.80;;
72406;SDS011;60396;47.550;18.828;2022-09-30T07:08:57;5.03;;;1.00;;
72406;SDS011;60396;47.550;18.828;2022-09-30T07:11:25;3.15;;;0.73;;
72406;SDS011;60396;47.550;18.828;2022-09-30T07:13:53;2.67;;;0.70;;
72406;SDS011;60396;47.550;18.828;2022-09-30T07:16:21;2.20;;;0.45;;
72406;SDS011;60396;47.550;18.828;2022-09-30T07:18:52;2.92;;;0.45;;
72406;SDS011;60396;47.550;18.828;2022-09-30T07:21:20;1.93;;;0.50;;
72406;SDS011;60396;47.550;18.828;2022-09-30T07:23:48;2.70;;;0.60;;
72406;SDS011;60396;47.550;18.828;2022-09-30T07:26:16;2.75;;;0.60;;
72406;SDS011;60396;47.550;18.828;2022-09-30T07:28:49;3.42;;;0.77;;
72406;SDS011;60396;47.550;18.828;2022-09-30T07:31:18;3.00;;;0.80;;
72406;SDS011;60396;47.550;18.828;2022-09-30T07:34:00;3.83;;;1.00;;
72406;SDS011;60396;47.550;18.828;2022-09-30T07:36:34;3.83;;;0.95;;
72406;SDS011;60396;47.550;18.828;2022-09-30T07:39:08;4.35;;;1.00;;
72406;SDS011;60396;47.550;18.828;2022-09-30T07:41:37;3.22;;;1.00;;
72406;SDS011;60396;47.550;18.828;2022-09-30T07:44:07;4.35;;;1.10;;
72406;SDS011;60396;47.550;18.828;2022-09-30T07:46:38;4.47;;;1.40;;
72406;SDS011;60396;47.550;18.828;2022-09-30T07:49:10;7.00;;;2.50;;
72406;SDS011;60396;47.550;18.828;2022-09-30T07:51:40;8.43;;;2.72;;
72406;SDS011;60396;47.550;18.828;2022-09-30T07:54:12;8.13;;;2.60;;
72406;SDS011;60396;47.550;18.828;2022-09-30T07:56:42;5.18;;;1.75;;
72406;SDS011;60396;47.550;18.828;2022-09-30T07:59:31;5.80;;;2.00;;
72406;SDS011;60396;47.550;18.828;2022-09-30T08:02:03;5.20;;;1.70;;
72406;SDS011;60396;47.550;18.828;2022-09-30T08:04:34;5.72;;;2.30;;
72406;SDS011;60396;47.550;18.828;2022-09-30T08:07:09;6.22;;;2.60;;
72406;SDS011;60396;47.550;18.828;2022-09-30T08:09:37;7.15;;;3.10;;
72406;SDS011;60396;47.550;18.828;2022-09-30T08:12:04;6.63;;;3.10;;
72406;SDS011;60396;47.550;18.828;2022-09-30T08:14:32;6.30;;;2.78;;
72406;SDS011;60396;47.550;18.828;2022-09-30T08:17:00;7.30;;;2.90;;
72406;SDS011;60396;47.550;18.828;2022-09-30T08:19:28;7.97;;;3.78;;
72406;SDS011;60396;47.550;18.828;2022-09-30T08:21:56;7.50;;;3.37;;
72406;SDS011;60396;47.550;18.828;2022-09-30T08:24:24;7.57;;;3.87;;
72406;SDS011;60396;47.550;18.828;2022-09-30T08:26:53;8.75;;;4.68;;
72406;SDS011;60396;47.550;18.828;2022-09-30T08:29:21;8.75;;;4.72;;
72406;SDS011;60396;47.550;18.828;2022-09-30T08:32:09;10.60;;;5.18;;
72406;SDS011;60396;47.550;18.828;2022-09-30T08:34:36;10.10;;;5.12;;
72406;SDS011;60396;47.550;18.828;2022-09-30T08:37:04;14.80;;;5.90;;
72406;SDS011;60396;47.550;18.828;2022-09-30T08:39:36;11.57;;;6.30;;
72406;SDS011;60396;47.550;18.828;2022-09-30T08:42:08;12.77;;;7.40;;
72406;SDS011;60396;47.550;18.828;2022-09-30T08:48:02;14.90;;;8.50;;
72406;SDS011;60396;47.550;18.828;2022-09-30T08:51:01;15.70;;;9.37;;
72406;SDS011;60396;47.550;18.828;2022-09-30T08:53:35;22.17;;;11.27;;
72406;SDS011;60396;47.550;18.828;2022-09-30T08:56:05;17.23;;;9.93;;
72406;SDS011;60396;47.550;18.828;2022-09-30T08:58:36;19.60;;;10.95;;
72406;SDS011;60396;47.550;18.828;2022-09-30T09:01:10;17.12;;;9.90;;
72406;SDS011;60396;47.550;18.828;2022-09-30T09:03:59;16.53;;;9.23;;
72406;SDS011;60396;47.550;18.828;2022-09-30T09:17:28;14.83;;;8.43;;
72406;SDS011;60396;47.550;18.828;2022-09-30T09:20:12;13.80;;;8.07;;
72406;SDS011;60396;47.550;18.828;2022-09-30T09:22:44;14.35;;;8.27;;
72406;SDS011;60396;47.550;18.828;2022-09-30T09:25:13;13.70;;;7.82;;
72406;SDS011;60396;47.550;18.828;2022-09-30T09:27:45;14.15;;;8.00;;
72406;SDS011;60396;47.550;18.828;2022-09-30T09:30:19;13.23;;;7.43;;
72406;SDS011;60396;47.550;18.828;2022-09-30T09:32:52;12.32;;;6.47;;
72406;SDS011;60396;47.550;18.828;2022-09-30T09:35:26;11.73;;;6.47;;
72406;SDS011;60396;47.550;18.828;2022-09-30T09:51:40;6.80;;;3.22;;
72406;SDS011;60396;47.550;18.828;2022-09-30T09:54:14;7.80;;;3.83;;
72406;SDS011;60396;47.550;18.828;2022-09-30T09:56:43;5.93;;;2.37;;
72406;SDS011;60396;47.550;18.828;2022-09-30T09:59:17;6.60;;;2.30;;
72406;SDS011;60396;47.550;18.828;2022-09-30T10:01:48;5.80;;;2.55;;
72406;SDS011;60396;47.550;18.828;2022-09-30T10:04:24;4.75;;;1.42;;
72406;SDS011;60396;47.550;18.828;2022-09-30T10:09:32;7.37;;;2.00;;
72406;SDS011;60396;47.550;18.828;2022-09-30T10:14:35;3.55;;;1.20;;
72406;SDS011;60396;47.550;18.828;2022-09-30T10:19:57;5.18;;;1.70;;
72406;SDS011;60396;47.550;18.828;2022-09-30T10:22:28;5.13;;;1.87;;
72406;SDS011;60396;47.550;18.828;2022-09-30T10:27:58;4.07;;;1.45;;
72406;SDS011;60396;47.550;18.828;2022-09-30T10:30:35;4.35;;;1.35;;
72406;SDS011;60396;47.550;18.828;2022-09-30T10:33:10;6.55;;;1.98;;
72406;SDS011;60396;47.550;18.828;2022-09-30T10:36:04;3.43;;;1.00;;
72406;SDS011;60396;47.550;18.828;2022-09-30T10:38:34;4.93;;;1.10;;
72406;SDS011;60396;47.550;18.828;2022-09-30T10:41:04;3.78;;;1.37;;
72406;SDS011;60396;47.550;18.828;2022-09-30T10:43:33;6.35;;;1.00;;
72406;SDS011;60396;47.550;18.828;2022-09-30T10:46:06;2.80;;;0.90;;
72406;SDS011;60396;47.550;18.828;2022-09-30T10:48:55;4.13;;;1.33;;
72406;SDS011;60396;47.550;18.828;2022-09-30T10:51:25;2.87;;;0.90;;
72406;SDS011;60396;47.550;18.828;2022-09-30T10:53:56;5.00;;;1.25;;
72406;SDS011;60396;47.550;18.828;2022-09-30T10:56:31;4.07;;;1.10;;
72406;SDS011;60396;47.550;18.828;2022-09-30T10:59:13;3.12;;;1.10;;
72406;SDS011;60396;47.550;18.828;2022-09-30T11:01:50;3.17;;;1.10;;
72406;SDS011;60396;47.550;18.828;2022-09-30T11:04:35;6.20;;;1.37;;
72406;SDS011;60396;47.550;18.828;2022-09-30T11:07:26;4.30;;;1.30;;
72406;SDS011;60396;47.550;18.828;2022-09-30T11:10:08;4.30;;;1.27;;
72406;SDS011;60396;47.550;18.828;2022-09-30T11:12:44;4.95;;;1.30;;
72406;SDS011;60396;47.550;18.828;2022-09-30T11:15:17;3.83;;;1.23;;
72406;SDS011;60396;47.550;18.828;2022-09-30T11:17:57;4.03;;;1.30;;
72406;SDS011;60396;47.550;18.828;2022-09-30T11:20:47;4.18;;;0.85;;
72406;SDS011;60396;47.550;18.828;2022-09-30T11:23:19;4.68;;;1.42;;
72406;SDS011;60396;47.550;18.828;2022-09-30T11:26:06;3.47;;;1.12;;
72406;SDS011;60396;47.550;18.828;2022-09-30T11:31:35;5.90;;;1.20;;
72406;SDS011;60396;47.550;18.828;2022-09-30T11:44:42;3.78;;;1.40;;
72406;SDS011;60396;47.550;18.828;2022-09-30T11:47:49;3.22;;;1.02;;
72406;SDS011;60396;47.550;18.828;2022-09-30T11:55:49;4.67;;;1.30;;
72406;SDS011;60396;47.550;18.828;2022-09-30T11:58:24;4.25;;;1.33;;
72406;SDS011;60396;47.550;18.828;2022-09-30T12:01:28;4.30;;;1.48;;
72406;SDS011;60396;47.550;18.828;2022-09-30T12:04:02;3.25;;;1.20;;
72406;SDS011;60396;47.550;18.828;2022-09-30T12:06:44;5.53;;;1.60;;
72406;SDS011;60396;47.550;18.828;2022-09-30T12:09:31;2.93;;;1.00;;
72406;SDS011;60396;47.550;18.828;2022-09-30T12:12:13;4.70;;;1.45;;
72406;SDS011;60396;47.550;18.828;2022-09-30T12:14:59;4.93;;;1.65;;
72406;SDS011;60396;47.550;18.828;2022-09-30T12:17:36;6.65;;;1.75;;
72406;SDS011;60396;47.550;18.828;2022-09-30T12:20:29;4.97;;;1.95;;
72406;SDS011;60396;47.550;18.828;2022-09-30T12:23:15;5.37;;;1.90;;
72406;SDS011;60396;47.550;18.828;2022-09-30T12:25:59;5.78;;;1.90;;
72406;SDS011;60396;47.550;18.828;2022-09-30T12:49:01;6.12;;;2.20;;
72406;SDS011;60396;47.550;18.828;2022-09-30T12:51:32;5.90;;;1.70;;
72406;SDS011;60396;47.550;18.828;2022-09-30T12:54:02;6.93;;;3.10;;
72406;SDS011;60396;47.550;18.828;2022-09-30T12:56:32;6.65;;;2.30;;
72406;SDS011;60396;47.550;18.828;2022-09-30T12:59:01;6.50;;;2.60;;
72406;SDS011;60396;47.550;18.828;2022-09-30T13:01:30;5.85;;;2.40;;
72406;SDS011;60396;47.550;18.828;2022-09-30T13:09:20;5.45;;;2.28;;
72406;SDS011;60396;47.550;18.828;2022-09-30T13:19:45;4.70;;;1.90;;
72406;SDS011;60396;47.550;18.828;2022-09-30T13:32:44;5.03;;;1.87;;
72406;SDS011;60396;47.550;18.828;2022-09-30T13:40:40;4.90;;;1.70;;
72406;SDS011;60396;47.550;18.828;2022-09-30T13:46:26;6.43;;;1.70;;
72406;SDS011;60396;47.550;18.828;2022-09-30T13:48:59;4.18;;;1.52;;
72406;SDS011;60396;47.550;18.828;2022-09-30T13:51:30;3.87;;;1.17;;
72406;SDS011;60396;47.550;18.828;2022-09-30T13:54:01;3.55;;;1.25;;
72406;SDS011;60396;47.550;18.828;2022-09-30T13:56:35;5.33;;;1.53;;
72406;SDS011;60396;47.550;18.828;2022-09-30T14:01:52;4.10;;;1.12;;
72406;SDS011;60396;47.550;18.828;2022-09-30T14:24:11;5.13;;;1.00;;
72406;SDS011;60396;47.550;18.828;2022-09-30T14:31:59;5.32;;;0.90;;
72406;SDS011;60396;47.550;18.828;2022-09-30T14:34:28;3.70;;;0.90;;
72406;SDS011;60396;47.550;18.828;2022-09-30T14:36:57;3.80;;;1.40;;
72406;SDS011;60396;47.550;18.828;2022-09-30T14:39:26;4.60;;;1.00;;
72406;SDS011;60396;47.550;18.828;2022-09-30T14:41:57;4.07;;;0.95;;
72406;SDS011;60396;47.550;18.828;2022-09-30T14:44:26;3.37;;;0.82;;
72406;SDS011;60396;47.550;18.828;2022-09-30T14:46:56;4.30;;;1.00;;
72406;SDS011;60396;47.550;18.828;2022-09-30T14:49:28;8.60;;;1.80;;
72406;SDS011;60396;47.550;18.828;2022-09-30T14:52:01;4.55;;;1.10;;
72406;SDS011;60396;47.550;18.828;2022-09-30T14:54:30;4.50;;;1.12;;
72406;SDS011;60396;47.550;18.828;2022-09-30T14:56:59;4.45;;;1.33;;
72406;SDS011;60396;47.550;18.828;2022-09-30T14:59:32;5.10;;;1.10;;
72406;SDS011;60396;47.550;18.828;2022-09-30T15:02:02;2.90;;;1.07;;
72406;SDS011;60396;47.550;18.828;2022-09-30T15:04:47;4.40;;;1.00;;
72406;SDS011;60396;47.550;18.828;2022-09-30T15:07:18;4.93;;;1.23;;
72406;SDS011;60396;47.550;18.828;2022-09-30T15:09:47;4.28;;;1.40;;
72406;SDS011;60396;47.550;18.828;2022-09-30T15:12:19;4.10;;;1.23;;
72406;SDS011;60396;47.550;18.828;2022-09-30T15:14:50;4.53;;;1.50;;
72406;SDS011;60396;47.550;18.828;2022-09-30T15:17:34;4.95;;;1.52;;
72406;SDS011;60396;47.550;18.828;2022-09-30T15:23:05;3.33;;;1.05;;
72406;SDS011;60396;47.550;18.828;2022-09-30T15:25:36;3.97;;;1.02;;
72406;SDS011;60396;47.550;18.828;2022-09-30T15:28:03;5.37;;;1.33;;
72406;SDS011;60396;47.550;18.828;2022-09-30T15:30:33;4.87;;;1.48;;
72406;SDS011;60396;47.550;18.828;2022-09-30T15:33:01;6.43;;;1.55;;
72406;SDS011;60396;47.550;18.828;2022-09-30T15:35:31;3.95;;;1.25;;
72406;SDS011;60396;47.550;18.828;2022-09-30T15:38:09;3.70;;;1.33;;
72406;SDS011;60396;47.550;18.828;2022-09-30T15:40:43;3.47;;;1.30;;
72406;SDS011;60396;47.550;18.828;2022-09-30T15:43:28;4.37;;;1.35;;
72406;SDS011;60396;47.550;18.828;2022-09-30T15:48:56;6.80;;;1.60;;
72406;SDS011;60396;47.550;18.828;2022-09-30T15:51:32;5.25;;;1.90;;
72406;SDS011;60396;47.550;18.828;2022-09-30T15:56:41;4.50;;;1.42;;
72406;SDS011;60396;47.550;18.828;2022-09-30T15:59:12;4.35;;;1.35;;
72406;SDS011;60396;47.550;18.828;2022-09-30T16:06:44;5.70;;;2.10;;
72406;SDS011;60396;47.550;18.828;2022-09-30T16:09:25;5.62;;;1.80;;
72406;SDS011;60396;47.550;18.828;2022-09-30T16:14:50;6.10;;;2.62;;
72406;SDS011;60396;47.550;18.828;2022-09-30T16:17:21;9.15;;;4.70;;
72406;SDS011;60396;47.550;18.828;2022-09-30T16:20:00;9.83;;;5.37;;
72406;SDS011;60396;47.550;18.828;2022-09-30T16:25:10;8.98;;;3.00;;
72406;SDS011;60396;47.550;18.828;2022-09-30T16:27:43;5.32;;;1.90;;
72406;SDS011;60396;47.550;18.828;2022-09-30T16:30:15;4.28;;;1.48;;
72406;SDS011;60396;47.550;18.828;2022-09-30T16:32:45;3.73;;;1.40;;
72406;SDS011;60396;47.550;18.828;2022-09-30T16:35:16;3.30;;;1.12;;
72406;SDS011;60396;47.550;18.828;2022-09-30T16:37:47;5.45;;;1.37;;
72406;SDS011;60396;47.550;18.828;2022-09-30T16:40:17;5.50;;;1.85;;
72406;SDS011;60396;47.550;18.828;2022-09-30T16:42:50;5.65;;;1.50;;
72406;SDS011;60396;47.550;18.828;2022-09-30T16:45:21;4.17;;;1.30;;
72406;SDS011;60396;47.550;18.828;2022-09-30T16:47:49;4.50;;;1.27;;
72406;SDS011;60396;47.550;18.828;2022-09-30T16:53:01;4.25;;;1.20;;
72406;SDS011;60396;47.550;18.828;2022-09-30T16:55:29;3.25;;;1.25;;
72406;SDS011;60396;47.550;18.828;2022-09-30T16:57:57;4.83;;;1.20;;
72406;SDS011;60396;47.550;18.828;2022-09-30T17:00:25;8.45;;;1.85;;
72406;SDS011;60396;47.550;18.828;2022-09-30T17:02:54;5.87;;;1.23;;
72406;SDS011;60396;47.550;18.828;2022-09-30T17:05:22;8.18;;;1.30;;
72406;SDS011;60396;47.550;18.828;2022-09-30T17:07:52;5.22;;;1.65;;
72406;SDS011;60396;47.550;18.828;2022-09-30T17:10:26;13.33;;;1.20;;
72406;SDS011;60396;47.550;18.828;2022-09-30T17:12:56;6.18;;;1.40;;
72406;SDS011;60396;47.550;18.828;2022-09-30T17:15:27;4.22;;;1.42;;
72406;SDS011;60396;47.550;18.828;2022-09-30T17:17:56;7.10;;;1.37;;
72406;SDS011;60396;47.550;18.828;2022-09-30T17:20:25;7.80;;;1.52;;
72406;SDS011;60396;47.550;18.828;2022-09-30T17:22:52;5.20;;;1.77;;
72406;SDS011;60396;47.550;18.828;2022-09-30T17:25:20;4.97;;;1.52;;
72406;SDS011;60396;47.550;18.828;2022-09-30T17:27:48;7.07;;;1.62;;
72406;SDS011;60396;47.550;18.828;2022-09-30T17:30:17;4.82;;;1.40;;
72406;SDS011;60396;47.550;18.828;2022-09-30T17:32:45;5.18;;;1.30;;
72406;SDS011;60396;47.550;18.828;2022-09-30T17:35:13;7.57;;;1.37;;
72406;SDS011;60396;47.550;18.828;2022-09-30T17:37:41;6.28;;;1.40;;
72406;SDS011;60396;47.550;18.828;2022-09-30T17:40:13;5.60;;;1.80;;
72406;SDS011;60396;47.550;18.828;2022-09-30T17:42:59;8.00;;;2.25;;
72406;SDS011;60396;47.550;18.828;2022-09-30T17:45:43;6.72;;;1.60;;
72406;SDS011;60396;47.550;18.828;2022-09-30T17:48:13;6.33;;;1.73;;
72406;SDS011;60396;47.550;18.828;2022-09-30T17:50:44;5.93;;;1.12;;
72406;SDS011;60396;47.550;18.828;2022-09-30T17:53:14;4.75;;;1.70;;
72406;SDS011;60396;47.550;18.828;2022-09-30T17:55:46;4.07;;;1.73;;
72406;SDS011;60396;47.550;18.828;2022-09-30T17:58:15;4.20;;;1.50;;
72406;SDS011;60396;47.550;18.828;2022-09-30T18:00:43;6.77;;;1.40;;
72406;SDS011;60396;47.550;18.828;2022-09-30T18:03:13;6.60;;;1.50;;
72406;SDS011;60396;47.550;18.828;2022-09-30T18:05:40;7.75;;;1.50;;
72406;SDS011;60396;47.550;18.828;2022-09-30T18:08:11;5.72;;;1.58;;
72406;SDS011;60396;47.550;18.828;2022-09-30T18:10:39;5.32;;;1.30;;
72406;SDS011;60396;47.550;18.828;2022-09-30T18:13:07;4.37;;;1.40;;
72406;SDS011;60396;47.550;18.828;2022-09-30T18:15:36;7.40;;;1.17;;
72406;SDS011;60396;47.550;18.828;2022-09-30T18:18:05;7.85;;;1.33;;
72406;SDS011;60396;47.550;18.828;2022-09-30T18:20:34;5.90;;;1.20;;
72406;SDS011;60396;47.550;18.828;2022-09-30T18:23:01;3.78;;;1.30;;
72406;SDS011;60396;47.550;18.828;2022-09-30T18:25:29;5.60;;;1.27;;
72406;SDS011;60396;47.550;18.828;2022-09-30T18:27:57;4.95;;;1.40;;
72406;SDS011;60396;47.550;18.828;2022-09-30T18:30:25;3.78;;;1.30;;
72406;SDS011;60396;47.550;18.828;2022-09-30T18:32:54;7.90;;;1.42;;
72406;SDS011;60396;47.550;18.828;2022-09-30T18:35:22;8.55;;;1.35;;
72406;SDS011;60396;47.550;18.828;2022-09-30T18:37:51;5.53;;;1.30;;
72406;SDS011;60396;47.550;18.828;2022-09-30T18:40:21;4.03;;;1.37;;
72406;SDS011;60396;47.550;18.828;2022-09-30T18:42:54;7.90;;;1.42;;
72406;SDS011;60396;47.550;18.828;2022-09-30T18:45:25;4.82;;;1.73;;
72406;SDS011;60396;47.550;18.828;2022-09-30T18:47:54;4.78;;;1.50;;
72406;SDS011;60396;47.550;18.828;2022-09-30T18:50:23;3.53;;;1.27;;
72406;SDS011;60396;47.550;18.828;2022-09-30T18:52:52;5.62;;;1.58;;
72406;SDS011;60396;47.550;18.828;2022-09-30T18:55:19;5.87;;;1.62;;
72406;SDS011;60396;47.550;18.828;2022-09-30T18:57:47;5.32;;;1.50;;
72406;SDS011;60396;47.550;18.828;2022-09-30T19:00:16;4.60;;;1.65;;